createdAt,value
2018-09-20T00:01:25.424Z,9.20
2018-09-20T00:04:00.348Z,8.50
2018-09-20T00:06:35.380Z,8.57
2018-09-20T00:09:10.032Z,8.40
2018-09-20T00:11:44.914Z,8.27
2018-09-20T00:14:19.816Z,8.17
2018-09-20T00:16:55.422Z,8.57
2018-09-20T00:19:30.365Z,8.50
2018-09-20T00:22:05.530Z,8.87
2018-09-20T00:24:40.226Z,8.77
2018-09-20T00:27:15.606Z,8.83
2018-09-20T00:29:50.445Z,8.73
2018-09-20T00:32:25.433Z,8.63
2018-09-20T00:35:00.242Z,8.23
2018-09-20T00:37:41.889Z,8.57
2018-09-20T00:40:17.229Z,8.27
2018-09-20T00:42:51.999Z,8.80
2018-09-20T00:45:26.806Z,9.10
2018-09-20T00:48:01.526Z,7.63
2018-09-20T00:50:36.502Z,7.67
2018-09-20T00:53:11.305Z,8.43
2018-09-20T00:55:46.427Z,7.77
2018-09-20T00:58:21.138Z,9.13
2018-09-20T01:00:55.989Z,8.90
2018-09-20T01:03:30.835Z,8.60
2018-09-20T01:06:05.689Z,8.03
2018-09-20T01:08:40.676Z,8.50
2018-09-20T01:11:15.761Z,8.70
2018-09-20T01:13:50.997Z,9.13
2018-09-20T01:16:25.979Z,8.43
2018-09-20T01:19:01.423Z,9.30
2018-09-20T01:21:36.251Z,9.47
2018-09-20T01:24:11.512Z,8.10
2018-09-20T01:26:46.133Z,9.10
2018-09-20T01:29:21.018Z,8.50
2018-09-20T01:31:57.014Z,9.90
2018-09-20T01:34:31.894Z,9.20
2018-09-20T01:37:07.900Z,9.33
2018-09-20T01:39:43.045Z,8.00
2018-09-20T01:42:19.052Z,8.73
2018-09-20T01:44:53.982Z,8.27
2018-09-20T01:47:28.849Z,8.00
2018-09-20T01:50:03.946Z,8.53
2018-09-20T01:52:39.234Z,9.77
2018-09-20T01:55:14.003Z,9.20
2018-09-20T01:57:56.414Z,8.40
2018-09-20T02:00:31.605Z,8.37
2018-09-20T02:03:07.073Z,9.10
2018-09-20T02:05:41.818Z,8.27
2018-09-20T02:08:16.613Z,8.10
2018-09-20T02:10:51.389Z,8.43
2018-09-20T02:13:26.230Z,9.57
2018-09-20T02:16:01.722Z,8.00
2018-09-20T02:18:37.066Z,8.10
2018-09-20T02:21:11.629Z,8.20
2018-09-20T02:23:46.413Z,9.70
2018-09-20T02:26:21.481Z,9.70
2018-09-20T02:28:56.253Z,11.37
2018-09-20T02:31:31.225Z,10.77
2018-09-20T02:34:06.577Z,9.77
2018-09-20T02:36:41.378Z,8.97
2018-09-20T02:39:16.197Z,9.13
2018-09-20T02:41:50.894Z,9.10
2018-09-20T02:44:25.757Z,8.73
2018-09-20T02:47:00.929Z,8.70
2018-09-20T02:49:36.098Z,8.80
2018-09-20T02:52:10.945Z,9.43
2018-09-20T02:54:45.901Z,8.20
2018-09-20T02:57:20.653Z,9.40
2018-09-20T02:59:56.146Z,9.67
2018-09-20T03:02:30.889Z,11.83
2018-09-20T03:05:06.455Z,9.63
2018-09-20T03:07:41.126Z,9.30
2018-09-20T03:10:16.105Z,11.57
2018-09-20T03:12:51.006Z,13.30
2018-09-20T03:15:26.649Z,10.10
2018-09-20T03:18:01.683Z,9.10
2018-09-20T03:20:37.545Z,9.90
2018-09-20T03:23:13.019Z,10.63
2018-09-20T03:25:47.852Z,10.00
2018-09-20T03:28:22.435Z,10.10
2018-09-20T03:30:57.957Z,10.97
2018-09-20T03:33:32.908Z,10.63
2018-09-20T03:36:07.886Z,10.20
2018-09-20T03:38:42.970Z,10.80
2018-09-20T03:41:17.908Z,9.93
2018-09-20T03:43:52.945Z,10.27
2018-09-20T03:46:28.039Z,9.53
2018-09-20T03:49:03.474Z,8.67
2018-09-20T03:51:38.541Z,8.53
2018-09-20T03:54:13.558Z,9.33
2018-09-20T03:56:48.454Z,10.57
2018-09-20T03:59:23.122Z,10.57
2018-09-20T04:01:58.670Z,10.83
2018-09-20T04:04:33.458Z,10.03
2018-09-20T04:07:08.354Z,10.97
2018-09-20T04:09:43.309Z,8.93
2018-09-20T04:12:18.311Z,9.40
2018-09-20T04:14:53.178Z,8.83
2018-09-20T04:17:27.949Z,10.43
2018-09-20T04:20:02.893Z,10.60
2018-09-20T04:22:37.724Z,10.57
2018-09-20T04:25:12.597Z,9.43
2018-09-20T04:27:47.642Z,9.67
2018-09-20T04:30:22.413Z,9.33
2018-09-20T04:32:57.810Z,10.63
2018-09-20T04:35:32.573Z,11.77
2018-09-20T04:38:07.267Z,10.57
2018-09-20T04:40:42.264Z,9.90
2018-09-20T04:43:17.142Z,9.93
2018-09-20T04:45:51.998Z,9.40
2018-09-20T04:48:29.038Z,9.67
2018-09-20T04:51:03.768Z,9.10
2018-09-20T04:53:38.564Z,9.50
2018-09-20T04:56:13.325Z,9.27
2018-09-20T04:58:48.149Z,8.70
2018-09-20T05:01:22.988Z,8.30
2018-09-20T05:03:57.945Z,9.37
2018-09-20T05:06:33.406Z,9.70
2018-09-20T05:09:11.343Z,9.67
2018-09-20T05:11:46.499Z,9.23
2018-09-20T05:14:21.349Z,10.20
2018-09-20T05:16:56.285Z,11.40
2018-09-20T05:19:31.439Z,10.73
2018-09-20T05:22:06.138Z,10.70
2018-09-20T05:24:40.899Z,10.60
2018-09-20T05:27:15.694Z,10.90
2018-09-20T05:29:50.319Z,11.17
2018-09-20T05:32:25.087Z,10.53
2018-09-20T05:34:59.901Z,10.03
2018-09-20T05:37:34.696Z,9.60
2018-09-20T05:40:10.038Z,14.13
2018-09-20T05:42:44.953Z,10.80
2018-09-20T05:45:19.813Z,12.37
2018-09-20T05:47:54.649Z,12.40
2018-09-20T05:50:30.189Z,10.40
2018-09-20T05:53:05.315Z,10.73
2018-09-20T05:55:40.203Z,11.33
2018-09-20T05:58:14.977Z,11.03
2018-09-20T06:00:50.338Z,11.20
2018-09-20T06:03:25.960Z,10.60
2018-09-20T06:06:00.921Z,10.43
2018-09-20T06:08:35.924Z,10.63
2018-09-20T06:11:11.561Z,10.90
2018-09-20T06:13:46.601Z,10.87
2018-09-20T06:16:21.445Z,11.00
2018-09-20T06:18:56.198Z,10.67
2018-09-20T06:21:30.886Z,11.20
2018-09-20T06:24:05.925Z,12.30
2018-09-20T06:26:40.663Z,11.93
2018-09-20T06:29:15.334Z,11.27
2018-09-20T06:31:50.215Z,11.13
2018-09-20T06:34:25.258Z,11.47
2018-09-20T06:37:00.129Z,11.47
2018-09-20T06:39:35.074Z,11.93
2018-09-20T06:42:09.889Z,10.97
2018-09-20T06:44:44.686Z,11.23
2018-09-20T06:47:20.781Z,11.43
2018-09-20T06:49:55.873Z,10.13
2018-09-20T06:52:30.814Z,10.60
2018-09-20T06:55:05.617Z,11.43
2018-09-20T06:57:40.507Z,10.20
2018-09-20T07:00:15.922Z,9.90
2018-09-20T07:02:50.773Z,9.63
2018-09-20T07:05:25.877Z,9.73
2018-09-20T07:08:01.343Z,9.63
2018-09-20T07:10:36.530Z,9.43
2018-09-20T07:13:11.369Z,9.50
2018-09-20T07:15:46.143Z,9.43
2018-09-20T07:18:20.875Z,9.47
2018-09-20T07:20:56.650Z,9.33
2018-09-20T07:23:32.103Z,9.13
2018-09-20T07:26:07.466Z,9.00
2018-09-20T07:28:42.850Z,8.53
2018-09-20T07:31:18.337Z,8.95
2018-09-20T07:33:55.074Z,9.08
2018-09-20T07:36:30.317Z,9.05
2018-09-20T07:39:08.010Z,8.95
2018-09-20T07:41:43.250Z,8.68
2018-09-20T07:44:18.494Z,8.73
2018-09-20T07:46:54.027Z,8.60
2018-09-20T07:49:29.259Z,8.05
2018-09-20T07:52:04.763Z,8.28
2018-09-20T07:54:40.266Z,7.92
2018-09-20T07:57:19.867Z,7.85
2018-09-20T07:59:54.993Z,7.55
2018-09-20T08:02:30.471Z,7.72
2018-09-20T08:05:05.792Z,7.10
2018-09-20T08:07:41.228Z,7.45
2018-09-20T08:10:16.726Z,6.87
2018-09-20T08:12:52.146Z,7.30
2018-09-20T08:15:27.515Z,6.92
2018-09-20T08:18:03.059Z,7.25
2018-09-20T08:20:38.418Z,7.05
2018-09-20T08:23:13.692Z,7.22
2018-09-20T08:25:49.030Z,7.40
2018-09-20T08:28:24.429Z,6.65
2018-09-20T08:30:59.617Z,6.60
2018-09-20T08:33:35.134Z,6.78
2018-09-20T08:36:10.439Z,6.30
2018-09-20T08:38:45.593Z,6.53
2018-09-20T08:41:21.080Z,6.90
2018-09-20T08:43:56.597Z,6.35
2018-09-20T08:46:32.542Z,6.12
2018-09-20T08:49:08.670Z,6.08
2018-09-20T08:51:44.734Z,5.87
2018-09-20T08:54:19.798Z,5.60
2018-09-20T08:56:54.938Z,6.20
2018-09-20T08:59:30.139Z,5.67
2018-09-20T09:02:05.480Z,5.80
2018-09-20T09:04:40.457Z,6.20
2018-09-20T09:07:15.659Z,5.90
2018-09-20T09:09:50.748Z,6.00
2018-09-20T09:12:25.822Z,5.53
2018-09-20T09:15:00.954Z,6.53
2018-09-20T09:17:35.999Z,5.97
2018-09-20T09:20:11.125Z,5.80
2018-09-20T09:22:46.250Z,5.30
2018-09-20T09:25:21.233Z,5.50
2018-09-20T09:27:56.375Z,5.60
2018-09-20T09:30:31.472Z,5.43
2018-09-20T09:33:06.407Z,5.63
2018-09-20T09:35:42.535Z,5.10
2018-09-20T09:38:17.495Z,4.37
2018-09-20T09:40:52.612Z,4.73
2018-09-20T09:43:27.671Z,4.60
2018-09-20T09:46:03.498Z,4.20
2018-09-20T09:48:39.413Z,4.83
2018-09-20T09:51:14.475Z,4.23
2018-09-20T09:53:49.738Z,4.00
2018-09-20T09:56:24.759Z,3.70
2018-09-20T09:58:59.848Z,4.73
2018-09-20T10:01:35.035Z,4.83
2018-09-20T10:04:10.514Z,4.73
2018-09-20T10:06:45.596Z,4.87
2018-09-20T10:09:20.755Z,4.97
2018-09-20T10:11:55.793Z,4.10
2018-09-20T10:14:30.737Z,4.57
2018-09-20T10:17:06.283Z,4.70
2018-09-20T10:19:41.198Z,4.60
2018-09-20T10:22:17.026Z,4.00
2018-09-20T10:24:52.203Z,4.40
2018-09-20T10:27:27.336Z,4.23
2018-09-20T10:30:03.910Z,4.60
2018-09-20T10:32:39.041Z,4.37
2018-09-20T10:35:14.749Z,4.67
2018-09-20T10:37:49.847Z,4.40
2018-09-20T10:40:25.785Z,4.50
2018-09-20T10:43:00.705Z,4.07
2018-09-20T10:45:36.234Z,4.33
2018-09-20T10:48:11.348Z,4.30
2018-09-20T10:50:46.534Z,4.23
2018-09-20T10:53:21.495Z,4.50
2018-09-20T10:55:56.625Z,4.50
2018-09-20T10:58:31.738Z,4.43
2018-09-20T11:01:06.937Z,4.30
2018-09-20T11:03:42.137Z,4.10
2018-09-20T11:06:18.394Z,4.90
2018-09-20T11:08:53.393Z,4.20
2018-09-20T11:11:28.527Z,4.10
2018-09-20T11:14:03.927Z,4.03
2018-09-20T11:16:39.581Z,4.60
2018-09-20T11:19:14.705Z,4.00
2018-09-20T11:21:49.995Z,4.57
2018-09-20T11:24:25.370Z,4.37
2018-09-20T11:27:00.475Z,4.30
2018-09-20T11:29:36.118Z,4.13
2018-09-20T11:32:11.238Z,4.20
2018-09-20T11:34:46.320Z,4.60
2018-09-20T11:37:21.325Z,4.57
2018-09-20T11:39:56.443Z,4.03
2018-09-20T11:42:31.613Z,3.97
2018-09-20T11:45:06.893Z,4.23
2018-09-20T11:47:42.269Z,4.63
2018-09-20T11:50:17.406Z,4.03
2018-09-20T11:52:52.477Z,4.23
2018-09-20T11:55:27.643Z,4.37
2018-09-20T11:58:06.806Z,4.00
2018-09-20T12:00:41.950Z,4.67
2018-09-20T12:03:16.987Z,4.13
2018-09-20T12:05:52.042Z,4.13
2018-09-20T12:08:27.861Z,4.60
2018-09-20T12:11:02.894Z,4.30
2018-09-20T12:13:38.383Z,4.33
2018-09-20T12:16:13.696Z,4.07
2018-09-20T12:18:49.217Z,4.37
2018-09-20T12:21:24.475Z,4.10
2018-09-20T12:23:59.419Z,4.30
2018-09-20T12:26:35.217Z,4.17
2018-09-20T12:29:11.511Z,3.80
2018-09-20T12:31:46.494Z,4.20
2018-09-20T12:34:21.883Z,4.20
2018-09-20T12:36:56.887Z,4.33
2018-09-20T12:39:32.027Z,4.20
2018-09-20T12:42:07.176Z,4.13
2018-09-20T12:44:42.350Z,4.20
2018-09-20T12:47:17.381Z,4.30
2018-09-20T12:49:52.470Z,4.23
2018-09-20T12:52:28.056Z,4.43
2018-09-20T12:55:03.359Z,4.07
2018-09-20T12:57:38.490Z,4.40
2018-09-20T13:00:13.628Z,4.27
2018-09-20T13:02:48.912Z,4.30
2018-09-20T13:05:24.107Z,4.77
2018-09-20T13:07:59.307Z,4.27
2018-09-20T13:10:34.649Z,4.63
2018-09-20T13:13:09.647Z,4.63
2018-09-20T13:15:45.633Z,4.93
2018-09-20T13:18:20.916Z,4.53
2018-09-20T13:20:56.801Z,4.77
2018-09-20T13:23:32.122Z,4.83
2018-09-20T13:26:07.264Z,4.53
2018-09-20T13:28:42.401Z,4.87
2018-09-20T13:31:18.309Z,4.73
2018-09-20T13:33:53.994Z,4.33
2018-09-20T13:36:29.378Z,4.30
2018-09-20T13:39:06.645Z,4.60
2018-09-20T13:41:41.538Z,4.37
2018-09-20T13:44:17.133Z,4.33
2018-09-20T13:46:52.410Z,4.43
2018-09-20T13:49:27.361Z,4.60
2018-09-20T13:52:02.434Z,4.73
2018-09-20T13:54:37.542Z,4.40
2018-09-20T13:57:12.651Z,4.27
2018-09-20T13:59:47.796Z,4.60
2018-09-20T14:02:22.961Z,4.60
2018-09-20T14:04:58.116Z,4.70
2018-09-20T14:07:33.225Z,4.53
2018-09-20T14:10:08.990Z,5.10
2018-09-20T14:12:45.097Z,4.23
2018-09-20T14:15:20.304Z,4.47
2018-09-20T14:17:55.482Z,4.50
2018-09-20T14:20:31.315Z,4.57
2018-09-20T14:23:06.420Z,4.57
2018-09-20T14:25:41.373Z,4.70
2018-09-20T14:28:16.691Z,4.70
2018-09-20T14:30:52.357Z,4.90
2018-09-20T14:33:27.294Z,5.10
2018-09-20T14:36:02.646Z,4.60
2018-09-20T14:38:37.723Z,4.93
2018-09-20T14:41:12.966Z,4.70
2018-09-20T14:43:48.958Z,4.20
2018-09-20T14:46:24.099Z,4.60
2018-09-20T14:48:59.170Z,4.17
2018-09-20T14:51:34.471Z,4.63
2018-09-20T14:54:10.326Z,4.63
2018-09-20T14:56:45.429Z,4.43
2018-09-20T14:59:20.409Z,4.40
2018-09-20T15:01:55.920Z,4.20
2018-09-20T15:04:31.050Z,4.50
2018-09-20T15:07:06.543Z,4.70
2018-09-20T15:09:41.706Z,4.47
2018-09-20T15:12:16.905Z,4.77
2018-09-20T15:14:52.042Z,4.70
2018-09-20T15:17:27.300Z,4.50
2018-09-20T15:20:02.777Z,4.57
2018-09-20T15:22:37.873Z,4.60
2018-09-20T15:25:13.093Z,5.07
2018-09-20T15:27:48.078Z,5.10
2018-09-20T15:30:23.320Z,4.67
2018-09-20T15:32:58.895Z,4.80
2018-09-20T15:35:33.935Z,5.07
2018-09-20T15:38:09.393Z,5.03
2018-09-20T15:40:44.591Z,4.97
2018-09-20T15:43:19.827Z,5.00
2018-09-20T15:45:55.210Z,5.00
2018-09-20T15:48:30.804Z,5.23
2018-09-20T15:51:06.443Z,5.33
2018-09-20T15:53:41.542Z,5.20
2018-09-20T15:56:17.465Z,5.07
2018-09-20T15:58:52.768Z,5.10
2018-09-20T16:01:28.649Z,5.27
2018-09-20T16:04:04.013Z,5.10
2018-09-20T16:06:39.000Z,5.57
2018-09-20T16:09:14.184Z,5.43
2018-09-20T16:11:49.502Z,5.57
2018-09-20T16:14:24.638Z,5.33
2018-09-20T16:17:00.162Z,5.40
2018-09-20T16:19:35.363Z,5.37
2018-09-20T16:22:10.479Z,5.30
2018-09-20T16:24:46.300Z,5.33
2018-09-20T16:27:21.631Z,5.07
2018-09-20T16:30:18.953Z,5.17
2018-09-20T16:33:03.129Z,5.20
2018-09-20T16:35:53.024Z,4.90
2018-09-20T16:38:39.303Z,4.93
2018-09-20T16:41:17.310Z,5.67
2018-09-20T16:43:52.420Z,5.47
2018-09-20T16:46:27.682Z,5.70
2018-09-20T16:49:03.370Z,5.83
2018-09-20T16:51:38.838Z,6.73
2018-09-20T16:54:13.842Z,7.20
2018-09-20T16:56:49.782Z,5.60
2018-09-20T16:59:24.975Z,5.47
2018-09-20T17:02:00.599Z,5.30
2018-09-20T17:04:36.059Z,5.95
2018-09-20T17:07:12.160Z,5.72
2018-09-20T17:09:48.069Z,5.35
2018-09-20T17:12:24.260Z,5.60
2018-09-20T17:15:00.079Z,5.83
2018-09-20T17:17:36.271Z,5.85
2018-09-20T17:20:12.395Z,5.72
2018-09-20T17:22:48.526Z,6.00
2018-09-20T17:25:23.853Z,5.95
2018-09-20T17:28:00.475Z,7.03
2018-09-20T17:30:35.795Z,6.53
2018-09-20T17:33:11.562Z,6.65
2018-09-20T17:35:47.210Z,6.90
2018-09-20T17:38:24.114Z,7.22
2018-09-20T17:41:03.096Z,5.83
2018-09-20T17:43:42.609Z,6.05
2018-09-20T17:46:18.311Z,6.80
2018-09-20T17:48:53.686Z,6.47
2018-09-20T17:51:30.000Z,6.42
2018-09-20T17:54:06.123Z,6.42
2018-09-20T17:56:42.414Z,6.20
2018-09-20T17:59:17.882Z,6.60
2018-09-20T18:01:53.323Z,6.70
2018-09-20T18:04:28.740Z,6.15
2018-09-20T18:07:04.360Z,7.17
2018-09-20T18:09:39.744Z,6.35
2018-09-20T18:12:15.126Z,6.45
2018-09-20T18:14:50.508Z,6.87
2018-09-20T18:17:26.386Z,6.62
2018-09-20T18:20:02.218Z,7.22
2018-09-20T18:22:37.896Z,6.42
2018-09-20T18:25:13.240Z,7.20
2018-09-20T18:27:48.915Z,6.53
2018-09-20T18:30:24.380Z,6.62
2018-09-20T18:33:00.925Z,6.87
2018-09-20T18:35:36.445Z,7.10
2018-09-20T18:38:13.103Z,7.03
2018-09-20T18:40:48.659Z,7.00
2018-09-20T18:43:25.029Z,7.80
2018-09-20T18:46:01.010Z,7.20
2018-09-20T18:48:36.694Z,24.07
2018-09-20T18:51:12.263Z,8.70
2018-09-20T18:53:47.867Z,7.67
2018-09-20T18:56:23.394Z,7.62
2018-09-20T18:58:59.155Z,6.55
2018-09-20T19:01:34.860Z,7.20
2018-09-20T19:04:10.092Z,7.50
2018-09-20T19:06:52.093Z,6.72
2018-09-20T19:09:27.571Z,8.05
2018-09-20T19:12:03.251Z,8.48
2018-09-20T19:14:38.746Z,8.05
2018-09-20T19:17:14.408Z,7.70
2018-09-20T19:19:49.939Z,6.87
2018-09-20T19:22:25.462Z,7.10
2018-09-20T19:25:01.070Z,7.42
2018-09-20T19:27:36.899Z,7.40
2018-09-20T19:30:12.824Z,7.10
2018-09-20T19:32:48.523Z,7.03
2018-09-20T19:35:24.073Z,7.45
2018-09-20T19:38:00.095Z,7.75
2018-09-20T19:40:35.827Z,7.67
2018-09-20T19:43:11.912Z,8.80
2018-09-20T19:45:47.359Z,8.48
2018-09-20T19:48:22.817Z,8.53
2018-09-20T19:50:59.347Z,9.80
2018-09-20T19:53:34.739Z,8.55
2018-09-20T19:56:10.486Z,8.25
2018-09-20T19:58:46.609Z,7.90
2018-09-20T20:01:22.733Z,8.08
2018-09-20T20:03:58.150Z,7.97
2018-09-20T20:06:33.792Z,7.95
2018-09-20T20:09:11.812Z,8.00
2018-09-20T20:11:47.486Z,7.70
2018-09-20T20:14:23.875Z,7.70
2018-09-20T20:16:59.123Z,6.75
2018-09-20T20:19:34.695Z,8.35
2018-09-20T20:22:10.390Z,7.28
2018-09-20T20:24:45.798Z,7.37
2018-09-20T20:27:21.587Z,7.35
2018-09-20T20:29:57.226Z,7.33
2018-09-20T20:32:32.772Z,7.92
2018-09-20T20:35:08.876Z,9.48
2018-09-20T20:37:44.190Z,10.82
2018-09-20T20:40:19.977Z,11.83
2018-09-20T20:42:56.356Z,9.00
2018-09-20T20:45:31.991Z,8.33
2018-09-20T20:48:38.656Z,8.53
2018-09-20T20:51:15.126Z,8.08
2018-09-20T20:53:50.372Z,8.30
2018-09-20T20:56:25.958Z,8.25
2018-09-20T20:59:01.764Z,7.97
2018-09-20T21:01:37.035Z,8.38
2018-09-20T21:04:12.585Z,9.63
2018-09-20T21:06:48.049Z,8.20
2018-09-20T21:09:23.650Z,8.35
2018-09-20T21:11:58.867Z,7.47
2018-09-20T21:14:34.473Z,8.50
2018-09-20T21:17:10.252Z,9.45
2018-09-20T21:19:45.875Z,8.45
2018-09-20T21:22:21.517Z,9.38
2018-09-20T21:24:57.625Z,7.75
2018-09-20T21:27:32.959Z,7.75
2018-09-20T21:30:08.949Z,11.15
2018-09-20T21:32:44.617Z,11.83
2018-09-20T21:35:19.552Z,9.15
2018-09-20T21:37:54.768Z,18.85
2018-09-20T21:40:30.436Z,11.25
2018-09-20T21:43:06.881Z,9.60
2018-09-20T21:45:42.523Z,13.65
2018-09-20T21:48:18.038Z,8.23
2018-09-20T21:50:53.199Z,8.37
2018-09-20T21:53:29.023Z,7.97
2018-09-20T21:56:04.265Z,8.63
2018-09-20T21:58:39.331Z,8.50
2018-09-20T22:01:14.938Z,9.80
2018-09-20T22:03:50.386Z,10.45
2018-09-20T22:06:25.331Z,7.90
2018-09-20T22:09:01.261Z,8.05
2018-09-20T22:11:36.491Z,7.45
2018-09-20T22:14:12.716Z,7.90
2018-09-20T22:16:47.953Z,7.73
2018-09-20T22:19:22.806Z,19.03
2018-09-20T22:21:57.833Z,29.53
2018-09-20T22:24:33.066Z,12.55
2018-09-20T22:27:08.786Z,12.07
2018-09-20T22:29:43.778Z,11.80
2018-09-20T22:32:20.651Z,10.93
2018-09-20T22:34:56.311Z,8.57
2018-09-20T22:37:31.490Z,8.00
2018-09-20T22:40:06.649Z,6.97
2018-09-20T22:42:41.564Z,7.57
2018-09-20T22:45:16.502Z,7.50
2018-09-20T22:47:51.215Z,8.17
2018-09-20T22:50:26.044Z,7.60
2018-09-20T22:53:01.021Z,7.57
2018-09-20T22:55:35.738Z,8.43
2018-09-20T22:58:10.759Z,9.13
2018-09-20T23:00:45.648Z,9.27
2018-09-20T23:03:21.023Z,9.43
2018-09-20T23:05:56.395Z,8.73
2018-09-20T23:08:31.360Z,8.63
2018-09-20T23:11:07.287Z,8.73
2018-09-20T23:13:42.009Z,9.40
2018-09-20T23:16:17.044Z,9.50
2018-09-20T23:18:51.746Z,9.17
2018-09-20T23:21:26.626Z,8.57
2018-09-20T23:24:02.253Z,9.40
2018-09-20T23:26:37.197Z,8.40
2018-09-20T23:29:12.618Z,7.93
2018-09-20T23:31:47.494Z,8.87
2018-09-20T23:34:22.493Z,8.07
2018-09-20T23:36:57.203Z,7.50
2018-09-20T23:39:31.996Z,7.93
2018-09-20T23:42:09.753Z,10.50
2018-09-20T23:44:44.681Z,8.97
2018-09-20T23:47:19.457Z,10.40
2018-09-20T23:49:54.893Z,9.70
2018-09-20T23:52:30.043Z,9.03
2018-09-20T23:55:04.798Z,9.23
2018-09-20T23:57:39.509Z,8.93
